This is the latest recevied weather packets stored in our database for station/object KF7PIZ. If no packets are shown the sender has not sent any weather packets the latest 10 day(s).
| Time | Temp. | Humidity | Pressure | Rain* | Wind** | Luminosity | Snow |
|---|---|---|---|---|---|---|---|
| 1777310206 | 11.11° C | 45% | 1016 hPa | 0 mm | - | 708 W/m² | - |
| 1777309903 | 12.22° C | 43% | 1015.6 hPa | 0 mm | - | 732 W/m² | - |
| 1777309601 | 11.67° C | 43% | 1016 hPa | 0 mm | - | 694 W/m² | - |
| 1777309298 | 11.11° C | 52% | 1016.1 hPa | 0 mm | - | 636 W/m² | - |
| 1777308996 | 12.22° C | 44% | 1016 hPa | 0 mm | - | 580 W/m² | - |
| 1777308692 | 11.67° C | 45% | 1016 hPa | 0 mm | - | 613 W/m² | - |
| 1777308387 | 9.44° C | 50% | 1016.2 hPa | 0 mm | - | 592 W/m² | - |
| 1777308082 | 10° C | 46% | 1016.1 hPa | 0 mm | - | 561 W/m² | - |
| 1777307781 | 11.67° C | 46% | 1015.8 hPa | 0 mm | - | 537 W/m² | - |
| 1777307478 | 10.56° C | 46% | 1016.1 hPa | 0 mm | - | 572 W/m² | - |
| 1777307175 | 8.89° C | 55% | 1016 hPa | 0 mm | - | 446 W/m² | - |
| 1777306872 | 11.67° C | 45% | 1015.8 hPa | 0 mm | - | 439 W/m² | - |
| 1777306570 | 11.67° C | 47% | 1015.8 hPa | 0 mm | - | 422 W/m² | - |
| 1777306270 | 10.56° C | 48% | 1016 hPa | 0 mm | - | 388 W/m² | - |
| 1777305965 | 11.67° C | 45% | 1016.3 hPa | 0 mm | - | 455 W/m² | - |
| 1777305662 | 11.67° C | 48% | 1016.1 hPa | 0 mm | - | 417 W/m² | - |
| 1777305358 | 11.11° C | 47% | 1016.1 hPa | 0 mm | - | 347 W/m² | - |
| 1777305058 | 10.56° C | 50% | 1016.3 hPa | 0 mm | - | 355 W/m² | - |
| 1777304753 | 9.44° C | 50% | 1016.2 hPa | 0 mm | - | 305 W/m² | - |
| 1777304450 | 8.89° C | 55% | 1016.1 hPa | 0 mm | - | 270 W/m² | - |
| 1777304148 | 8.89° C | 53% | 1016.3 hPa | 0 mm | - | 257 W/m² | - |
| 1777303844 | 8.89° C | 54% | 1016.2 hPa | 0 mm | - | 203 W/m² | - |
| 1777303541 | 8.89° C | 56% | 1016.2 hPa | 0 mm | - | 147 W/m² | - |
| 1777303239 | 9.44° C | 54% | 1016.1 hPa | 0 mm | - | 245 W/m² | - |
| 1777302937 | 8.33° C | 57% | 1016.5 hPa | 0 mm | - | 195 W/m² | - |
* Rain latest hour (hover to see other rain measurements)
** Current wind speed in m/s (hover to see current wind gust speed)